Etusivu
METAR-TAF:

METAR-TAF

Lentoasemat :

Curaçao, Alankomaiden Antillit

Leveyspiiri: 12-12N, Pituuspiiri: 068-58W, korkeus merenpinnasta: 9 m

Tämänhetkinen sää

Tämä raportti tehtiin 1 tunti ja 9 minuuttia sitten, kello 03.00 UTC
Tuuli 12 kn idästä
Lämpötila 28°C
Kosteus 79%
Ilmanpaine 1012 hPa
Näkyvyys 10 km tai enemmän
Muutamia pilviä 1800 ft:n korkeudessa

METAR: TNCC 120300Z 10012KT 9999 FEW018 28/24 Q1012 NOSIG

Aika: 00:09 (04:09 UTC)

Sääennuste

Tämä raportti tehtiin 4 tuntia ja 54 minuuttia sitten, kello 23.15 UTC
Ennuste voimassa 12. päivästä klo 00 UTC - 12. päivään klo 24 UTC
Tuuli 12 kn idästä
Näkyvyys 10 km tai enemmän
Hajanaisia pilviä 1800 ft:n korkeudessa
Ajoittain
12. päivästä klo 04 UTC - 12. päivään klo 18 UTC
Näkyvyys: 7000 m
Hajonneita pilviä 1500 ft:n korkeudessa
vesikuuroja

TAF: TNCC 112315Z 1200/1224 10012KT 9999 SCT018 TEMPO 1204/1218 7000 SHRA BKN015

Säähavainnot ja -ennusteet yli 4000 lentoasemalta (METAR- ja TAF-raportit).

Käytössä olevat sääasemat on merkitty karttaan keltaisilla ja punaisilla pisteillä.

Aseta hiiri pisteen päälle nähdäksesi sääaseman nimen.

Klikkaa sitten nähdäksesi säähavainnot ja -ennusteet.

Kartan vaihtaminen: klikkaa mustalla rastilla varustettuja vihreitä pisteitä, niin voit zoomata sisään; viivalla varustettua vihreää pistettä, niin voit zoomata ulos tai vihreitä nuolia, niin pääset viereisille kartoille.


METAR-TAF: